createdAt,value
2022-07-31T00:00:53.522Z,8.77
2022-07-31T00:03:21.582Z,9.37
2022-07-31T00:05:49.625Z,8.80
2022-07-31T00:08:17.826Z,9.80
2022-07-31T00:10:45.852Z,8.23
2022-07-31T00:13:15.284Z,8.47
2022-07-31T00:15:43.194Z,8.93
2022-07-31T00:18:11.770Z,9.13
2022-07-31T00:20:39.717Z,8.93
2022-07-31T00:23:07.665Z,9.47
2022-07-31T00:25:38.900Z,7.87
2022-07-31T00:28:07.880Z,8.83
2022-07-31T00:30:37.172Z,8.53
2022-07-31T00:33:05.249Z,7.33
2022-07-31T00:35:33.201Z,7.30
2022-07-31T00:38:25.746Z,6.77
2022-07-31T00:40:49.152Z,7.40
2022-07-31T00:43:18.394Z,6.93
2022-07-31T00:45:49.381Z,6.93
2022-07-31T00:48:27.611Z,7.30
2022-07-31T00:50:56.007Z,6.97
2022-07-31T00:53:23.973Z,6.47
2022-07-31T00:55:52.374Z,7.07
2022-07-31T00:58:20.536Z,6.18
2022-07-31T01:00:49.984Z,5.87
2022-07-31T01:03:18.738Z,5.47
2022-07-31T01:05:46.728Z,6.50
2022-07-31T01:08:14.890Z,6.53
2022-07-31T01:10:46.678Z,6.07
2022-07-31T01:13:16.126Z,6.40
2022-07-31T01:15:44.062Z,6.40
2022-07-31T01:18:13.450Z,6.53
2022-07-31T01:20:44.520Z,6.47
2022-07-31T01:23:19.645Z,6.57
2022-07-31T01:25:54.088Z,5.90
2022-07-31T01:28:26.061Z,5.97
2022-07-31T01:33:43.932Z,6.47
2022-07-31T01:36:14.393Z,5.90
2022-07-31T01:38:45.795Z,6.00
2022-07-31T01:41:14.532Z,6.03
2022-07-31T01:43:43.130Z,6.50
2022-07-31T01:46:14.085Z,6.50
2022-07-31T01:48:42.057Z,6.20
2022-07-31T01:51:10.453Z,5.47
2022-07-31T01:53:39.128Z,5.63
2022-07-31T01:56:07.147Z,5.53
2022-07-31T01:58:36.680Z,5.80
2022-07-31T02:01:05.041Z,6.00
2022-07-31T02:03:42.796Z,5.30
2022-07-31T02:06:13.046Z,6.20
2022-07-31T02:08:40.980Z,5.80
2022-07-31T02:11:08.972Z,5.53
2022-07-31T02:13:36.975Z,5.20
2022-07-31T02:16:05.713Z,4.90
2022-07-31T02:18:35.333Z,5.17
2022-07-31T02:21:03.316Z,6.03
2022-07-31T02:23:31.341Z,5.77
2022-07-31T02:25:59.314Z,4.57
2022-07-31T02:28:27.232Z,5.63
2022-07-31T02:30:55.181Z,6.20
2022-07-31T02:33:23.846Z,6.80
2022-07-31T02:35:55.398Z,7.33
2022-07-31T02:38:26.192Z,6.47
2022-07-31T02:40:56.072Z,7.33
2022-07-31T02:43:23.984Z,8.20
2022-07-31T02:45:51.925Z,7.33
2022-07-31T02:48:19.905Z,6.77
2022-07-31T02:50:47.816Z,6.60
2022-07-31T02:53:17.130Z,7.07
2022-07-31T02:55:45.509Z,7.50
2022-07-31T02:58:14.139Z,7.90
2022-07-31T03:00:42.365Z,7.40
2022-07-31T03:03:10.474Z,7.37
2022-07-31T03:05:38.424Z,7.23
2022-07-31T03:08:06.928Z,8.37
2022-07-31T03:10:36.270Z,6.70
2022-07-31T03:13:04.614Z,7.83
2022-07-31T03:15:32.614Z,7.47
2022-07-31T03:18:00.566Z,7.43
2022-07-31T03:20:28.803Z,7.20
2022-07-31T03:22:56.763Z,6.70
2022-07-31T03:25:24.651Z,6.73
2022-07-31T03:27:56.764Z,6.37
2022-07-31T03:30:25.940Z,6.03
2022-07-31T03:32:53.945Z,6.70
2022-07-31T03:35:21.936Z,5.63
2022-07-31T03:37:49.900Z,5.40
2022-07-31T03:40:17.854Z,5.77
2022-07-31T03:42:45.772Z,4.80
2022-07-31T03:45:15.165Z,6.30
2022-07-31T03:47:43.107Z,5.80
2022-07-31T03:50:11.102Z,5.60
2022-07-31T03:52:39.059Z,5.33
2022-07-31T03:55:08.292Z,4.63
2022-07-31T03:57:36.294Z,4.80
2022-07-31T04:00:04.914Z,4.37
2022-07-31T04:02:36.756Z,4.27
2022-07-31T04:05:09.597Z,4.57
2022-07-31T04:07:38.185Z,4.50
2022-07-31T04:10:06.839Z,4.57
2022-07-31T04:12:34.798Z,4.77
2022-07-31T04:15:02.773Z,3.90
2022-07-31T04:17:30.904Z,3.80
2022-07-31T04:20:05.719Z,4.33
2022-07-31T04:22:33.905Z,3.80
2022-07-31T04:25:02.020Z,3.83
2022-07-31T04:27:30.009Z,3.40
2022-07-31T04:29:58.200Z,2.80
2022-07-31T04:32:26.180Z,3.00
2022-07-31T04:34:54.102Z,2.90
2022-07-31T04:37:23.429Z,3.40
2022-07-31T04:39:51.374Z,3.17
2022-07-31T04:42:19.342Z,3.40
2022-07-31T04:44:47.265Z,2.93
2022-07-31T04:47:17.551Z,2.80
2022-07-31T04:49:45.881Z,3.03
2022-07-31T04:52:13.830Z,3.10
2022-07-31T04:54:43.498Z,3.47
2022-07-31T04:57:11.444Z,2.97
2022-07-31T04:59:59.050Z,2.60
2022-07-31T05:02:27.256Z,2.50
2022-07-31T05:04:58.180Z,2.83
2022-07-31T05:07:28.916Z,3.00
2022-07-31T05:09:59.557Z,2.60
2022-07-31T05:12:27.543Z,3.23
2022-07-31T05:14:56.206Z,2.93
2022-07-31T05:17:24.133Z,3.10
2022-07-31T05:19:52.068Z,3.60
2022-07-31T05:22:20.319Z,3.50
2022-07-31T05:24:48.624Z,3.87
2022-07-31T05:27:18.014Z,4.07
2022-07-31T05:29:45.939Z,4.27
2022-07-31T05:32:14.069Z,4.40
2022-07-31T05:34:42.295Z,3.90
2022-07-31T05:37:10.343Z,3.43
2022-07-31T05:39:38.306Z,3.60
2022-07-31T05:42:07.851Z,3.60
2022-07-31T05:44:37.670Z,3.53
2022-07-31T05:47:08.629Z,3.53
2022-07-31T05:49:36.629Z,3.73
2022-07-31T05:52:05.363Z,3.70
2022-07-31T05:54:33.675Z,3.60
2022-07-31T05:57:01.744Z,2.77
2022-07-31T05:59:29.625Z,3.83
2022-07-31T06:02:37.657Z,3.23
2022-07-31T06:05:02.774Z,3.87
2022-07-31T06:07:30.888Z,3.57
2022-07-31T06:09:58.828Z,2.90
2022-07-31T06:12:26.782Z,2.87
2022-07-31T06:14:54.683Z,3.20
2022-07-31T06:17:24.033Z,2.73
2022-07-31T06:20:09.771Z,2.70
2022-07-31T06:22:39.401Z,2.83
2022-07-31T06:25:08.741Z,2.75
2022-07-31T06:27:38.674Z,2.87
2022-07-31T06:30:09.290Z,3.30
2022-07-31T06:32:41.145Z,2.97
2022-07-31T06:35:10.293Z,2.57
2022-07-31T06:37:38.232Z,2.70
2022-07-31T06:40:07.269Z,2.60
2022-07-31T06:42:37.705Z,2.87
2022-07-31T06:45:06.369Z,3.17
2022-07-31T06:47:34.321Z,2.93
2022-07-31T06:50:03.648Z,2.70
2022-07-31T06:52:31.609Z,2.87
2022-07-31T06:55:01.194Z,3.03
2022-07-31T06:57:29.299Z,3.00
2022-07-31T06:59:57.239Z,2.50
2022-07-31T07:02:25.254Z,2.13
2022-07-31T07:05:05.117Z,2.70
2022-07-31T07:08:50.843Z,3.20
2022-07-31T07:11:16.896Z,2.73
2022-07-31T07:13:46.846Z,2.43
2022-07-31T07:16:15.120Z,2.37
2022-07-31T07:18:43.496Z,2.67
2022-07-31T07:21:11.762Z,2.63
2022-07-31T07:23:41.183Z,2.08
2022-07-31T07:26:09.796Z,2.60
2022-07-31T07:28:37.734Z,2.33
2022-07-31T07:31:05.792Z,2.50
2022-07-31T07:33:40.999Z,2.40
2022-07-31T07:36:23.180Z,2.00
2022-07-31T07:38:55.624Z,2.37
2022-07-31T07:41:28.973Z,1.80
2022-07-31T07:43:56.892Z,1.87
2022-07-31T07:46:25.240Z,1.87
2022-07-31T07:48:53.252Z,1.87
2022-07-31T07:51:59.319Z,2.20
2022-07-31T07:54:30.975Z,2.00
2022-07-31T07:56:58.928Z,2.50
2022-07-31T07:59:27.198Z,1.97
2022-07-31T08:03:48.754Z,2.37
2022-07-31T08:05:21.923Z,1.90
2022-07-31T08:07:49.949Z,1.70
2022-07-31T08:10:19.769Z,1.30
2022-07-31T08:13:19.142Z,0.97
2022-07-31T08:15:47.208Z,0.97
2022-07-31T08:18:15.170Z,1.00
2022-07-31T08:20:43.219Z,0.90
2022-07-31T08:23:11.583Z,1.00
2022-07-31T08:25:47.593Z,1.10
2022-07-31T08:28:24.145Z,1.20
2022-07-31T08:30:52.206Z,1.60
2022-07-31T08:33:20.440Z,1.67
2022-07-31T08:35:50.911Z,1.87
2022-07-31T08:38:19.672Z,1.90
2022-07-31T08:40:49.380Z,1.90
2022-07-31T08:44:04.467Z,2.03
2022-07-31T08:46:33.274Z,1.30
2022-07-31T08:49:01.270Z,1.77
2022-07-31T08:51:29.360Z,1.70
2022-07-31T08:53:57.513Z,1.83
2022-07-31T08:56:26.867Z,1.60
2022-07-31T08:58:56.983Z,1.50
2022-07-31T09:01:25.111Z,1.70
2022-07-31T09:03:53.659Z,1.30
2022-07-31T09:06:21.583Z,1.50
2022-07-31T09:08:49.563Z,1.67
2022-07-31T09:11:23.951Z,1.13
2022-07-31T09:14:01.715Z,1.40
2022-07-31T09:16:31.414Z,1.42
2022-07-31T09:19:00.845Z,1.00
2022-07-31T09:21:39.154Z,1.17
2022-07-31T09:24:10.206Z,1.30
2022-07-31T09:26:40.878Z,1.00
2022-07-31T09:29:35.699Z,1.23
2022-07-31T09:32:11.058Z,1.08
2022-07-31T09:34:39.362Z,1.15
2022-07-31T09:37:32.326Z,1.42
2022-07-31T09:40:00.353Z,1.38
2022-07-31T09:42:36.909Z,0.85
2022-07-31T09:48:26.694Z,0.60
2022-07-31T09:50:56.437Z,0.77
2022-07-31T09:53:43.523Z,0.93
2022-07-31T09:56:12.711Z,1.00
2022-07-31T09:58:40.945Z,1.05
2022-07-31T10:01:14.370Z,1.20
2022-07-31T10:03:42.407Z,1.27
2022-07-31T10:06:16.412Z,1.30
2022-07-31T10:08:45.085Z,1.25
2022-07-31T10:11:16.824Z,1.20
2022-07-31T10:13:46.328Z,1.20
2022-07-31T10:16:52.241Z,1.30
2022-07-31T10:19:20.274Z,1.30
2022-07-31T10:21:53.032Z,0.88
2022-07-31T10:24:25.955Z,1.30
2022-07-31T10:27:10.570Z,1.45
2022-07-31T10:29:39.817Z,1.15
2022-07-31T10:32:09.386Z,1.30
2022-07-31T10:34:37.386Z,1.25
2022-07-31T10:37:11.292Z,1.08
2022-07-31T10:40:23.695Z,1.25
2022-07-31T10:42:53.829Z,1.30
2022-07-31T10:45:23.103Z,0.88
2022-07-31T10:47:56.731Z,0.82
2022-07-31T10:50:25.212Z,1.58
2022-07-31T10:53:34.660Z,1.75
2022-07-31T10:56:16.541Z,1.60
2022-07-31T10:58:48.479Z,1.80
2022-07-31T11:01:17.610Z,1.80
2022-07-31T11:04:41.344Z,2.20
2022-07-31T11:07:16.156Z,2.70
2022-07-31T11:09:51.015Z,2.55
2022-07-31T11:12:19.552Z,2.53
2022-07-31T11:18:21.999Z,2.88
2022-07-31T11:21:09.486Z,2.90
2022-07-31T11:24:01.134Z,3.50
2022-07-31T11:26:41.945Z,3.42
2022-07-31T11:29:58.523Z,3.80
2022-07-31T11:32:01.576Z,3.78
2022-07-31T11:35:19.658Z,4.35
2022-07-31T11:37:57.021Z,3.60
2022-07-31T11:40:29.191Z,3.20
2022-07-31T11:45:49.772Z,3.35
2022-07-31T11:48:19.512Z,3.70
2022-07-31T11:50:47.832Z,3.60
2022-07-31T11:53:17.234Z,4.20
2022-07-31T11:56:00.771Z,4.00
2022-07-31T11:59:54.988Z,3.40
2022-07-31T12:01:54.562Z,2.97
2022-07-31T12:04:59.625Z,3.10
2022-07-31T12:07:27.700Z,3.00
2022-07-31T12:10:01.349Z,2.58
2022-07-31T12:12:31.075Z,3.00
2022-07-31T12:14:58.996Z,2.83
2022-07-31T12:17:27.016Z,3.20
2022-07-31T12:19:58.199Z,3.22
2022-07-31T12:22:26.156Z,3.00
2022-07-31T12:25:04.967Z,3.10
2022-07-31T12:27:46.654Z,2.65
2022-07-31T12:30:15.987Z,3.00
2022-07-31T12:32:44.185Z,3.13
2022-07-31T12:35:56.163Z,3.03
2022-07-31T12:41:31.842Z,3.60
2022-07-31T12:44:13.472Z,3.22
2022-07-31T12:46:42.758Z,3.25
2022-07-31T12:49:10.898Z,3.92
2022-07-31T12:51:45.330Z,3.38
2022-07-31T12:54:16.342Z,3.75
2022-07-31T12:57:21.822Z,3.03
2022-07-31T12:59:51.217Z,3.60
2022-07-31T13:02:44.818Z,3.35
2022-07-31T13:05:12.784Z,3.95
2022-07-31T13:07:40.715Z,4.18
2022-07-31T13:10:19.046Z,4.13
2022-07-31T13:12:51.344Z,4.25
2022-07-31T13:15:22.723Z,4.97
2022-07-31T13:17:51.296Z,4.82
2022-07-31T13:20:39.055Z,4.30
2022-07-31T13:23:07.519Z,5.03
2022-07-31T13:25:35.506Z,5.22
2022-07-31T13:28:03.634Z,5.53
2022-07-31T13:30:32.920Z,4.38
2022-07-31T13:33:00.862Z,4.63
2022-07-31T13:35:32.152Z,4.70
2022-07-31T13:38:05.899Z,4.28
2022-07-31T13:44:29.821Z,5.60
2022-07-31T13:46:59.259Z,4.32
2022-07-31T13:52:43.089Z,4.97
2022-07-31T13:55:21.061Z,4.40
2022-07-31T13:57:49.033Z,4.55
2022-07-31T14:00:17.754Z,4.10
2022-07-31T14:02:49.982Z,4.35
2022-07-31T14:09:01.159Z,4.30
2022-07-31T14:14:07.321Z,4.90
2022-07-31T14:16:37.156Z,4.97
2022-07-31T14:19:06.660Z,4.63
2022-07-31T14:21:38.001Z,4.70
2022-07-31T14:24:06.814Z,4.57
2022-07-31T14:26:34.907Z,4.53
2022-07-31T14:29:06.926Z,4.50
2022-07-31T14:31:35.319Z,4.20
2022-07-31T14:34:03.273Z,4.65
2022-07-31T14:36:32.657Z,4.78
2022-07-31T14:39:00.663Z,4.70
2022-07-31T14:41:28.636Z,4.85
2022-07-31T14:43:56.586Z,4.50
2022-07-31T14:46:24.560Z,4.57
2022-07-31T14:48:52.548Z,3.90
2022-07-31T14:51:20.589Z,3.33
2022-07-31T14:53:52.367Z,3.33
2022-07-31T14:56:34.714Z,3.25
2022-07-31T14:59:08.356Z,3.85
2022-07-31T15:01:36.404Z,4.95
2022-07-31T15:04:04.535Z,4.13
2022-07-31T15:06:39.551Z,4.00
2022-07-31T15:09:22.044Z,3.75
2022-07-31T15:11:58.313Z,3.97
2022-07-31T15:14:29.958Z,3.65
2022-07-31T15:16:57.928Z,3.90
2022-07-31T15:19:26.632Z,3.80
2022-07-31T15:22:10.778Z,3.35
2022-07-31T15:24:49.464Z,3.50
2022-07-31T15:27:18.245Z,3.20
2022-07-31T15:30:05.126Z,3.40
2022-07-31T15:32:34.287Z,3.40
2022-07-31T15:35:02.305Z,3.20
2022-07-31T15:37:30.567Z,2.90
2022-07-31T15:40:02.484Z,3.00
2022-07-31T15:42:31.947Z,2.70
2022-07-31T15:44:59.912Z,2.28
2022-07-31T15:47:27.892Z,2.40
2022-07-31T15:49:56.110Z,1.98
2022-07-31T15:52:24.035Z,1.90
2022-07-31T15:54:52.648Z,2.40
2022-07-31T15:57:22.352Z,1.90
2022-07-31T15:59:50.418Z,2.13
2022-07-31T16:02:18.594Z,1.88
2022-07-31T16:04:52.742Z,1.67
2022-07-31T16:08:28.799Z,1.90
2022-07-31T16:10:15.769Z,1.80
2022-07-31T16:12:46.988Z,1.50
2022-07-31T16:15:15.229Z,2.10
2022-07-31T16:17:44.377Z,1.80
2022-07-31T16:20:26.022Z,1.90
2022-07-31T16:22:55.962Z,2.35
2022-07-31T16:25:24.262Z,2.65
2022-07-31T16:27:53.636Z,9.52
2022-07-31T16:30:21.803Z,5.00
2022-07-31T16:32:49.813Z,3.53
2022-07-31T16:35:17.769Z,2.70
2022-07-31T16:37:52.403Z,3.83
2022-07-31T16:40:28.810Z,2.53
2022-07-31T16:43:00.818Z,4.20
2022-07-31T16:45:29.638Z,3.50
2022-07-31T16:47:57.630Z,2.25
2022-07-31T16:50:25.725Z,2.67
2022-07-31T16:52:55.102Z,2.30
2022-07-31T16:55:51.558Z,2.90
2022-07-31T16:58:13.766Z,2.08
2022-07-31T17:00:42.178Z,2.00
2022-07-31T17:03:58.573Z,2.10
2022-07-31T17:05:58.367Z,1.90
2022-07-31T17:08:26.325Z,1.90
2022-07-31T17:10:54.937Z,1.90
2022-07-31T17:13:24.586Z,1.85
2022-07-31T17:15:52.540Z,2.00
2022-07-31T17:18:25.036Z,3.05
2022-07-31T17:20:55.690Z,2.90
2022-07-31T17:23:43.160Z,2.35
2022-07-31T17:26:21.303Z,2.70
2022-07-31T17:28:51.365Z,4.70
2022-07-31T17:31:21.293Z,2.85
2022-07-31T17:33:59.195Z,5.03
2022-07-31T17:36:29.620Z,2.65
2022-07-31T17:38:58.035Z,2.70
2022-07-31T17:41:26.320Z,3.17
2022-07-31T17:43:55.900Z,3.75
2022-07-31T17:46:29.999Z,3.17
2022-07-31T17:49:05.964Z,4.72
2022-07-31T17:51:34.324Z,3.05
2022-07-31T17:54:02.482Z,3.05
2022-07-31T17:56:30.590Z,2.80
2022-07-31T17:59:04.674Z,2.90
2022-07-31T18:01:33.504Z,3.90
2022-07-31T18:04:01.624Z,3.65
2022-07-31T18:06:29.809Z,2.05
2022-07-31T18:08:58.759Z,2.92
2022-07-31T18:11:26.848Z,3.78
2022-07-31T18:13:55.535Z,2.50
2022-07-31T18:16:30.390Z,2.15
2022-07-31T18:18:58.384Z,2.30
2022-07-31T18:21:26.377Z,3.28
2022-07-31T18:23:54.815Z,2.58
2022-07-31T18:26:23.593Z,2.20
2022-07-31T18:28:51.561Z,2.17
2022-07-31T18:31:31.582Z,2.90
2022-07-31T18:34:02.520Z,4.93
2022-07-31T18:36:30.529Z,2.22
2022-07-31T18:38:58.862Z,1.45
2022-07-31T18:41:26.870Z,1.83
2022-07-31T18:43:54.889Z,1.50
2022-07-31T18:46:23.790Z,1.83
2022-07-31T18:48:55.418Z,1.65
2022-07-31T18:51:25.649Z,1.52
2022-07-31T18:53:54.362Z,1.80
2022-07-31T18:56:23.276Z,1.70
2022-07-31T18:58:51.257Z,1.98
2022-07-31T19:01:19.321Z,1.58
2022-07-31T19:03:47.503Z,2.47
2022-07-31T19:06:15.470Z,2.40
2022-07-31T19:08:44.921Z,2.20
2022-07-31T19:11:12.952Z,2.15
2022-07-31T19:13:41.793Z,2.50
2022-07-31T19:16:09.849Z,2.55
2022-07-31T19:18:40.235Z,2.45
2022-07-31T19:21:16.723Z,2.45
2022-07-31T19:23:53.042Z,2.60
2022-07-31T19:26:21.053Z,3.05
2022-07-31T19:28:49.009Z,2.45
2022-07-31T19:31:17.101Z,2.80
2022-07-31T19:33:45.119Z,2.97
2022-07-31T19:36:15.377Z,2.75
2022-07-31T19:38:44.389Z,2.50
2022-07-31T19:41:14.874Z,3.05
2022-07-31T19:43:44.658Z,2.55
2022-07-31T19:46:13.036Z,3.33
2022-07-31T19:48:41.831Z,2.53
2022-07-31T19:51:09.882Z,2.55
2022-07-31T19:53:37.885Z,2.40
2022-07-31T19:56:06.501Z,2.30
2022-07-31T19:58:36.093Z,2.05
2022-07-31T20:01:04.366Z,1.90
2022-07-31T20:03:32.516Z,3.03
2022-07-31T20:06:00.697Z,2.15
2022-07-31T20:08:33.018Z,2.10
2022-07-31T20:11:03.430Z,2.10
2022-07-31T20:13:32.251Z,2.20
2022-07-31T20:16:01.713Z,2.17
2022-07-31T20:18:30.658Z,1.98
2022-07-31T20:20:59.360Z,2.37
2022-07-31T20:23:27.335Z,2.80
2022-07-31T20:25:55.689Z,2.30
2022-07-31T20:28:23.687Z,2.20
2022-07-31T20:30:51.634Z,2.80
2022-07-31T20:33:21.180Z,2.60
2022-07-31T20:35:50.286Z,2.97
2022-07-31T20:38:18.830Z,2.73
2022-07-31T20:40:53.823Z,2.97
2022-07-31T20:43:23.435Z,2.30
2022-07-31T20:45:51.479Z,2.03
2022-07-31T20:48:22.499Z,2.03
2022-07-31T20:50:50.552Z,2.23
2022-07-31T20:53:19.387Z,2.60
2022-07-31T20:55:50.721Z,2.60
2022-07-31T20:58:18.813Z,2.87
2022-07-31T21:00:47.703Z,2.83
2022-07-31T21:03:16.192Z,2.33
2022-07-31T21:05:45.571Z,2.40
2022-07-31T21:08:13.767Z,2.30
2022-07-31T21:10:41.862Z,2.00
2022-07-31T21:13:09.939Z,2.27
2022-07-31T21:15:43.661Z,2.40
2022-07-31T21:18:13.251Z,2.47
2022-07-31T21:20:51.007Z,2.20
2022-07-31T21:23:22.440Z,2.37
2022-07-31T21:25:50.733Z,2.47
2022-07-31T21:28:19.272Z,2.40
2022-07-31T21:30:47.547Z,2.43
2022-07-31T21:33:15.651Z,2.33
2022-07-31T21:35:44.222Z,2.17
2022-07-31T21:38:14.670Z,2.30
2022-07-31T21:40:44.288Z,2.10
2022-07-31T21:43:16.980Z,1.93
2022-07-31T21:45:55.276Z,1.80
2022-07-31T21:48:26.395Z,1.80
2022-07-31T21:50:54.434Z,1.70
2022-07-31T21:53:22.566Z,1.80
2022-07-31T21:55:51.953Z,1.73
2022-07-31T21:58:19.904Z,1.73
2022-07-31T22:00:47.974Z,1.77
2022-07-31T22:03:16.537Z,1.60
2022-07-31T22:06:01.885Z,1.90
2022-07-31T22:08:29.814Z,1.97
2022-07-31T22:10:59.270Z,1.77
2022-07-31T22:13:27.207Z,1.80
2022-07-31T22:16:00.674Z,1.70
2022-07-31T22:18:29.602Z,1.67
2022-07-31T22:20:57.849Z,1.70
2022-07-31T22:23:26.254Z,1.80
2022-07-31T22:25:54.502Z,1.97
2022-07-31T22:28:24.565Z,2.00
2022-07-31T22:30:52.664Z,1.87
2022-07-31T22:33:20.770Z,2.17
2022-07-31T22:35:58.471Z,2.07
2022-07-31T22:38:28.186Z,2.17
2022-07-31T22:40:56.304Z,1.93
2022-07-31T22:44:12.586Z,2.10
2022-07-31T22:46:13.782Z,1.90
2022-07-31T22:48:41.876Z,1.90
2022-07-31T22:51:10.734Z,1.83
2022-07-31T22:53:42.512Z,1.77
2022-07-31T22:56:10.464Z,1.70
2022-07-31T22:58:39.773Z,1.80
2022-07-31T23:01:07.729Z,1.97
2022-07-31T23:03:35.809Z,1.70
2022-07-31T23:06:31.475Z,1.90
2022-07-31T23:08:56.513Z,1.73
2022-07-31T23:11:24.730Z,1.70
2022-07-31T23:13:54.179Z,1.77
2022-07-31T23:16:22.277Z,1.63
2022-07-31T23:18:50.283Z,1.77
2022-07-31T23:21:18.681Z,1.53
2022-07-31T23:23:49.154Z,1.93
2022-07-31T23:26:18.830Z,1.80
2022-07-31T23:28:46.960Z,1.60
2022-07-31T23:31:16.279Z,1.83
2022-07-31T23:33:44.261Z,1.67
2022-07-31T23:36:12.250Z,1.80
2022-07-31T23:38:40.198Z,1.67
2022-07-31T23:41:08.110Z,1.63
2022-07-31T23:43:35.070Z,1.80
2022-07-31T23:46:03.071Z,1.50
2022-07-31T23:48:32.815Z,1.90
2022-07-31T23:51:00.798Z,1.50
2022-07-31T23:53:28.765Z,1.53
2022-07-31T23:55:56.722Z,1.77
2022-07-31T23:58:24.688Z,1.97
